createdAt,value
2022-08-17T00:00:34.595Z,65.0
2022-08-17T00:05:15.580Z,65.0
2022-08-17T00:10:15.627Z,65.0
2022-08-17T00:15:15.736Z,65.0
2022-08-17T00:20:15.778Z,65.4
2022-08-17T00:25:15.798Z,65.3
2022-08-17T00:30:15.655Z,65.2
2022-08-17T00:35:15.597Z,65.1
2022-08-17T00:40:15.758Z,65.1
2022-08-17T00:45:15.628Z,65.0
2022-08-17T00:50:15.642Z,65.0
2022-08-17T00:55:15.784Z,65.1
2022-08-17T01:00:16.537Z,65.1
2022-08-17T01:05:15.697Z,65.1
2022-08-17T01:10:57.116Z,64.9
2022-08-17T01:15:15.724Z,65.0
2022-08-17T01:20:15.690Z,65.0
2022-08-17T01:25:15.746Z,65.1
2022-08-17T01:30:54.316Z,65.4
2022-08-17T01:35:15.726Z,65.4
2022-08-17T01:40:15.880Z,65.2
2022-08-17T01:45:15.757Z,65.5
2022-08-17T01:50:15.808Z,65.3
2022-08-17T01:55:15.771Z,65.2
2022-08-17T02:00:15.802Z,64.9
2022-08-17T02:05:15.779Z,64.9
2022-08-17T02:10:18.955Z,65.2
2022-08-17T02:15:15.797Z,65.0
2022-08-17T02:20:15.780Z,64.9
2022-08-17T02:25:15.796Z,64.9
2022-08-17T02:30:59.851Z,64.8
2022-08-17T02:35:15.888Z,64.7
2022-08-17T02:40:15.943Z,64.7
2022-08-17T02:45:15.852Z,64.7
2022-08-17T02:50:15.862Z,64.7
2022-08-17T02:55:15.930Z,64.6
2022-08-17T03:00:16.081Z,64.3
2022-08-17T03:05:16.003Z,64.4
2022-08-17T03:10:16.060Z,64.4
2022-08-17T03:15:16.003Z,64.0
2022-08-17T03:20:15.947Z,64.2
2022-08-17T03:25:15.993Z,64.2
2022-08-17T03:30:16.014Z,63.9
2022-08-17T03:35:15.987Z,63.8
2022-08-17T03:40:16.065Z,63.8
2022-08-17T03:45:15.987Z,63.5
2022-08-17T03:50:16.137Z,63.6
2022-08-17T03:55:16.060Z,63.6
2022-08-17T04:00:17.674Z,63.5
2022-08-17T04:05:17.322Z,63.4
2022-08-17T04:10:17.214Z,62.9
2022-08-17T04:15:17.148Z,62.9
2022-08-17T04:20:17.229Z,62.8
2022-08-17T04:25:17.117Z,62.5
2022-08-17T04:30:17.220Z,62.5
2022-08-17T04:35:17.128Z,62.5
2022-08-17T04:40:17.394Z,62.6
2022-08-17T04:45:17.336Z,62.7
2022-08-17T04:50:17.117Z,62.7
2022-08-17T04:55:17.139Z,62.3
2022-08-17T05:00:17.130Z,62.3
2022-08-17T05:05:17.165Z,62.4
2022-08-17T05:10:17.184Z,62.5
2022-08-17T05:15:17.286Z,62.9
2022-08-17T05:20:17.172Z,62.9
2022-08-17T05:25:17.239Z,62.8
2022-08-17T05:30:17.360Z,63.1
2022-08-17T05:35:17.356Z,63.6
2022-08-17T05:40:17.365Z,63.4
2022-08-17T05:45:23.642Z,63.4
2022-08-17T05:50:18.089Z,63.7
2022-08-17T05:55:17.283Z,63.6
2022-08-17T06:00:20.274Z,63.5
2022-08-17T06:05:17.336Z,63.4
2022-08-17T06:10:17.356Z,63.4
2022-08-17T06:15:17.321Z,63.5
2022-08-17T06:20:17.375Z,63.4
2022-08-17T06:25:17.313Z,63.7
2022-08-17T06:30:17.326Z,63.6
2022-08-17T06:35:17.430Z,63.5
2022-08-17T06:40:17.427Z,63.6
2022-08-17T06:45:15.304Z,63.5
2022-08-17T06:50:15.573Z,63.5
2022-08-17T06:55:18.047Z,63.5
2022-08-17T07:00:15.415Z,63.8
2022-08-17T07:05:15.374Z,63.8
2022-08-17T07:10:15.412Z,64.0
2022-08-17T07:15:15.429Z,64.1
2022-08-17T07:20:15.471Z,64.5
2022-08-17T07:25:16.056Z,64.5
2022-08-17T07:30:15.446Z,64.6
2022-08-17T07:35:15.699Z,64.7
2022-08-17T07:40:16.831Z,64.6
2022-08-17T07:45:15.736Z,64.7
2022-08-17T07:50:15.512Z,64.6
2022-08-17T07:55:15.529Z,64.6
2022-08-17T08:00:16.290Z,64.5
2022-08-17T08:05:15.519Z,64.4
2022-08-17T08:10:15.675Z,64.1
2022-08-17T08:15:15.708Z,64.1
2022-08-17T08:20:37.557Z,64.2
2022-08-17T08:25:15.641Z,63.8
2022-08-17T08:30:15.638Z,63.8
2022-08-17T08:35:15.655Z,63.8
2022-08-17T08:40:15.728Z,63.5
2022-08-17T08:45:15.694Z,63.6
2022-08-17T08:50:37.728Z,63.7
2022-08-17T08:55:15.702Z,63.7
2022-08-17T09:00:15.781Z,63.7
2022-08-17T09:05:16.161Z,63.8
2022-08-17T09:10:15.756Z,63.9
2022-08-17T09:15:15.666Z,63.8
2022-08-17T09:20:27.951Z,63.5
2022-08-17T09:25:15.766Z,63.4
2022-08-17T09:30:16.025Z,63.5
2022-08-17T09:35:15.812Z,63.3
2022-08-17T09:40:16.089Z,63.3
2022-08-17T09:45:15.790Z,63.3
2022-08-17T09:50:15.865Z,63.4
2022-08-17T09:55:15.805Z,63.4
2022-08-17T10:00:15.952Z,63.7
2022-08-17T10:05:15.777Z,63.7
2022-08-17T10:10:15.804Z,63.9
2022-08-17T10:15:15.765Z,63.9
2022-08-17T10:20:15.914Z,63.9
2022-08-17T10:25:23.588Z,64.2
2022-08-17T10:30:16.220Z,64.2
2022-08-17T10:35:16.015Z,64.2
2022-08-17T10:40:16.008Z,64.2
2022-08-17T10:45:15.903Z,64.3
2022-08-17T10:50:15.894Z,64.3
2022-08-17T10:55:15.971Z,64.2
2022-08-17T11:00:15.925Z,64.3
2022-08-17T11:05:16.067Z,64.3
2022-08-17T11:10:15.909Z,64.3
2022-08-17T11:15:16.068Z,64.3
2022-08-17T11:20:16.064Z,64.3
2022-08-17T11:25:15.982Z,64.3
2022-08-17T11:30:15.971Z,64.0
2022-08-17T11:35:15.979Z,64.2
2022-08-17T11:40:16.179Z,63.9
2022-08-17T11:45:31.916Z,63.9
2022-08-17T11:50:16.028Z,63.6
2022-08-17T11:55:34.740Z,63.4
2022-08-17T12:00:16.181Z,63.5
2022-08-17T12:05:16.178Z,63.7
2022-08-17T12:10:16.266Z,63.4
2022-08-17T12:15:16.062Z,63.5
2022-08-17T12:20:16.151Z,63.2
2022-08-17T12:25:16.128Z,63.2
2022-08-17T12:30:16.079Z,63.1
2022-08-17T12:35:16.021Z,63.1
2022-08-17T12:40:16.163Z,63.2
2022-08-17T12:45:16.204Z,63.4
2022-08-17T12:50:28.820Z,63.4
2022-08-17T12:55:16.257Z,63.4
2022-08-17T13:00:16.401Z,63.5
2022-08-17T13:05:16.148Z,63.4
2022-08-17T13:10:16.166Z,63.3
2022-08-17T13:15:16.275Z,63.2
2022-08-17T13:20:16.437Z,63.2
2022-08-17T13:25:16.174Z,63.1
2022-08-17T13:30:16.193Z,63.2
2022-08-17T13:35:26.571Z,63.2
2022-08-17T13:40:16.272Z,63.4
2022-08-17T13:45:32.320Z,63.2
2022-08-17T13:50:16.284Z,63.3
2022-08-17T13:55:16.454Z,63.5
2022-08-17T14:00:16.299Z,63.6
2022-08-17T14:05:16.279Z,63.7
2022-08-17T14:10:16.368Z,63.8
2022-08-17T14:15:16.432Z,63.7
2022-08-17T14:20:16.486Z,63.8
2022-08-17T14:25:16.340Z,64.1
2022-08-17T14:30:16.437Z,64.0
2022-08-17T14:35:16.436Z,63.2
2022-08-17T14:40:16.609Z,63.4
2022-08-17T14:45:31.723Z,62.7
2022-08-17T14:50:18.586Z,62.4
2022-08-17T14:55:16.462Z,62.5
2022-08-17T15:00:16.729Z,62.3
2022-08-17T15:05:16.619Z,62.8
2022-08-17T15:10:16.495Z,62.8
2022-08-17T15:15:16.488Z,62.4
2022-08-17T15:20:16.568Z,61.6
2022-08-17T15:25:16.627Z,60.9
2022-08-17T15:30:16.632Z,60.8
2022-08-17T15:35:16.495Z,60.9
2022-08-17T15:40:16.682Z,60.9
2022-08-17T15:45:16.441Z,61.4
2022-08-17T15:50:16.599Z,61.0
2022-08-17T15:55:18.697Z,60.8
2022-08-17T16:00:16.622Z,60.6
2022-08-17T16:05:17.566Z,60.7
2022-08-17T16:10:19.099Z,60.3
2022-08-17T16:15:16.728Z,60.6
2022-08-17T16:20:20.712Z,60.5
2022-08-17T16:25:16.662Z,60.7
2022-08-17T16:30:17.915Z,60.6
2022-08-17T16:35:16.644Z,61.0
2022-08-17T16:40:16.854Z,60.9
2022-08-17T16:45:16.612Z,60.8
2022-08-17T16:50:16.755Z,60.8
2022-08-17T16:55:16.649Z,60.8
2022-08-17T17:00:16.735Z,60.9
2022-08-17T17:05:16.681Z,61.0
2022-08-17T17:10:16.894Z,60.6
2022-08-17T17:15:21.891Z,60.3
2022-08-17T17:20:16.825Z,60.2
2022-08-17T17:25:16.746Z,60.4
2022-08-17T17:30:16.884Z,60.0
2022-08-17T17:35:17.040Z,60.5
2022-08-17T17:40:16.809Z,60.6
2022-08-17T17:45:16.822Z,60.4
2022-08-17T17:50:16.910Z,60.9
2022-08-17T17:55:17.010Z,60.7
2022-08-17T18:00:16.879Z,60.1
2022-08-17T18:05:16.930Z,60.4
2022-08-17T18:10:29.797Z,60.7
2022-08-17T18:15:17.019Z,60.7
2022-08-17T18:20:16.982Z,60.7
2022-08-17T18:25:16.846Z,60.8
2022-08-17T18:30:16.891Z,60.5
2022-08-17T18:35:16.891Z,59.6
2022-08-17T18:40:17.136Z,59.7
2022-08-17T18:45:16.847Z,59.5
2022-08-17T18:50:16.836Z,60.2
2022-08-17T18:55:16.867Z,60.4
2022-08-17T19:00:16.872Z,60.3
2022-08-17T19:05:17.309Z,60.2
2022-08-17T19:10:17.051Z,59.1
2022-08-17T19:15:17.013Z,59.5
2022-08-17T19:20:17.028Z,59.4
2022-08-17T19:25:17.218Z,59.7
2022-08-17T19:30:17.103Z,59.3
2022-08-17T19:35:17.761Z,59.6
2022-08-17T19:40:35.131Z,59.5
2022-08-17T19:45:17.067Z,59.4
2022-08-17T19:50:17.154Z,59.8
2022-08-17T19:55:20.545Z,59.7
2022-08-17T20:00:17.130Z,60.0
2022-08-17T20:05:17.093Z,60.0
2022-08-17T20:10:17.102Z,59.9
2022-08-17T20:15:17.099Z,59.7
2022-08-17T20:20:19.284Z,59.0
2022-08-17T20:25:17.079Z,59.0
2022-08-17T20:30:17.311Z,58.6
2022-08-17T20:35:17.152Z,59.0
2022-08-17T20:40:17.268Z,59.1
2022-08-17T20:45:17.338Z,58.7
2022-08-17T20:50:17.167Z,59.3
2022-08-17T20:55:17.131Z,59.0
2022-08-17T21:00:17.383Z,58.7
2022-08-17T21:05:17.205Z,58.8
2022-08-17T21:10:17.235Z,59.2
2022-08-17T21:15:17.242Z,59.6
2022-08-17T21:20:17.285Z,59.5
2022-08-17T21:25:17.231Z,59.7
2022-08-17T21:30:17.227Z,59.1
2022-08-17T21:35:17.364Z,58.7
2022-08-17T21:40:17.406Z,58.7
2022-08-17T21:45:17.252Z,59.6
2022-08-17T21:50:17.450Z,59.5
2022-08-17T21:55:17.322Z,59.5
2022-08-17T22:00:17.444Z,59.4
2022-08-17T22:05:17.351Z,60.0
2022-08-17T22:10:17.332Z,60.0
2022-08-17T22:15:17.380Z,60.0
2022-08-17T22:20:17.387Z,60.0
2022-08-17T22:25:17.330Z,60.0
2022-08-17T22:30:17.388Z,60.3
2022-08-17T22:35:17.345Z,60.4
2022-08-17T22:40:15.460Z,60.4
2022-08-17T22:45:15.390Z,60.0
2022-08-17T22:50:15.461Z,60.5
2022-08-17T22:55:15.346Z,59.7
2022-08-17T23:00:15.671Z,59.7
2022-08-17T23:05:15.463Z,58.5
2022-08-17T23:10:15.430Z,58.7
2022-08-17T23:15:15.460Z,59.5
2022-08-17T23:20:15.472Z,59.4
2022-08-17T23:25:15.778Z,59.8
2022-08-17T23:30:15.480Z,59.6
2022-08-17T23:35:15.470Z,59.3
2022-08-17T23:40:15.648Z,59.4
2022-08-17T23:45:15.628Z,59.7
2022-08-17T23:50:15.570Z,59.3
2022-08-17T23:55:15.554Z,59.4
